Spokane, WA (99210)

1:51 AM PDT on September 02, 2015 (GMT -0700)
kendall yards | | Change Station
CLOSE
Current Station
Personal Weather Station
Location: Spokane, WA
Elevation: 1850 ft
Nearby Weather Stations

Elev 1850 ft 47.66 °N, 117.44 °W | Updated 7 minutes ago

Clear
Clear
61.5 °F
Feels Like 61.5 °F
N
4.7
Wind Variable Wind from SW

Today
High -- | Low -- °F
--% Chance of Precip.
Yesterday
High -- | Low -- °F
Precip. -- in
6:09 AM 7:28 PM
Waning Gibbous, 82% visible
Pressure 29.70 in
Visibility 10.0 miles
Clouds Clear
Dew Point 43 °F
Humidity 51%
Rainfall 0.00 in
Snow Depth Not available.
UV 0 out of 12
Pollen 7.50 out of 12
Air Quality Not available.
Flu Activity Not available.
METAR KSFF 020753Z AUTO 00000KT 10SM CLR 17/07 A2973 RMK AO2 SLP056 T01720072 402560106
Pressure 29.70 in
Visibility 10.0 miles
Clouds Clear
Dew Point 43 °F
Humidity 51%
Rainfall 0.00 in
Snow Depth Not available.
UV 0 out of 12
Pollen 7.50 out of 12
Air Quality Not available.
Flu Activity Not available.
METAR KSFF 020753Z AUTO 00000KT 10SM CLR 17/07 A2973 RMK AO2 SLP056 T01720072 402560106

10-Day Weather Forecast

×

Almanac

Astronomy

Sep. 02, 2015 Rise Set
Actual Time
Civil Twilight
Nautical Twilight
Astronomical Twilight
Moon
Length of Visible Light
Length of Day
Tomorrow will be .
, % of the Moon is Illuminated

Today's Extremes

State Highs State Lows

Community

WunderPhotos

Upload Photos

1,851,728 photos uploaded!

WunderBlogs® & News

Nearby

Air Quality

  Air Quality AQ Index Pollutant
Not available.

Snow Depth

Station Depth Elevation

Earthquake Activity

City Distance Mag. Time & Date
Minimum magnitude displayed is 2.5.

Coastal Water Temperatures

Place Temperature

Stations

Nearby Weather Stations

Station Location Temp. Windchill Dew Point Humidity Wind Precip. Elev Updated Type